Latest Weather Observations for Townsville

IDQ60801

Issued at 11:32 am EST Sunday 26 March 2017 (issued every 30 minutes, with the page automatically refreshed every 10 minutes)

About weather observations | Map of weather stations | Latest weather observations for QLD | Other Formats
Station Details ID: 032040 Name: TOWNSVILLE AERO Lat: -19.25 Lon: 146.77 Height: 4.34 m
Data from the previous 72 hours. | See also: Recent months at Townsville
Date/Time
EST
Temp
°C
App
Temp
°C
Dew
Point
°C
Rel
Hum
%
Delta-T
°C
Wind Press
QNH
hPa
Press
MSL
hPa
Rain since
9am
mm
Dir  Spd
km/h
Gust
km/h
Spd
kts
Gust
kts
26/11:00am 29.7 28.9 20.1 56 6.3 SW 24 32 13 17 1009.1 1009.0 0.0
26/10:30am 29.6 28.9 20.2 57 6.2 SSW 24 30 13 16 1009.4 1009.3 0.0
26/10:00am 28.7 26.6 20.5 61 5.4 SSW 32 37 17 20 1009.4 1009.3 0.0
26/09:30am 28.1 25.6 19.8 60 5.4 SSW 32 39 17 21 1009.3 1009.2 0.0
26/09:00am 27.7 26.0 19.7 61 5.2 SW 28 37 15 20 1009.6 1009.5 0.2
26/08:30am 27.3 27.0 19.6 62 5.0 SSW 20 28 11 15 1009.6 1009.5 0.2
26/08:00am 26.9 27.1 19.3 63 4.9 SW 17 24 9 13 1009.2 1009.1 0.2
26/07:30am 26.3 26.2 19.5 66 4.4 SW 19 24 10 13 1008.9 1008.8 0.2
26/07:00am 26.0 26.3 19.5 67 4.2 SW 17 19 9 10 1008.9 1008.8 0.2
26/06:30am 25.6 25.9 19.7 70 3.8 SSW 17 22 9 12 1008.5 1008.4 0.2
26/06:00am 24.9 27.1 20.5 76 2.9 SSW 9 11 5 6 1008.1 1008.0 0.2
26/05:30am 25.0 27.6 21.9 83 2.1 W 11 13 6 7 1007.8 1007.7 0.2
26/05:00am 25.6 29.7 21.5 78 2.7 WSW 2 9 1 5 1007.8 1007.7 0.2
26/04:30am 25.3 29.8 22.2 83 2.1 SW 2 7 1 4 1007.7 1007.6 0.2
26/04:00am 26.0 29.1 21.5 76 3.0 S 7 11 4 6 1007.6 1007.5 0.2
26/03:30am 26.4 29.3 21.8 76 3.1 W 9 11 5 6 1007.3 1007.2 0.2
26/03:00am 26.5 28.3 21.1 72 3.6 S 13 17 7 9 1007.4 1007.3 0.2
26/02:30am 27.0 29.5 21.0 69 4.0 S 9 11 5 6 1007.4 1007.3 0.2
26/02:00am 27.0 28.0 21.1 70 3.9 SSW 17 19 9 10 1007.6 1007.5 0.2
26/01:30am 26.4 30.4 23.8 85 1.8 SSW 9 9 5 5 1007.9 1007.8 0.2
26/01:00am 26.2 30.5 24.3 89 1.3 SSE 9 9 5 5 1008.2 1008.1 0.2
26/12:30am 26.2 31.8 24.3 89 1.3 SSE 2 9 1 5 1008.7 1008.6 0.2
26/12:00am 26.9 31.8 24.6 87 1.6 WSW 7 9 4 5 1009.0 1008.9 0.2
 
Date/Time
EST
Temp
°C
App
Temp
°C
Dew
Point
°C
Rel
Hum
%
Delta-T
°C
Wind Press
QNH
hPa
Press
MSL
hPa
Rain since
9am
mm
Dir  Spd
km/h
Gust
km/h
Spd
kts
Gust
kts
25/11:30pm 26.9 32.0 24.9 89 1.4 WSW 7 9 4 5 1009.3 1009.2 0.2
25/11:00pm 27.3 31.3 24.4 84 2.0 SW 11 11 6 6 1009.7 1009.6 0.2
25/10:30pm 27.6 32.0 24.4 83 2.2 WSW 9 11 5 6 1010.0 1009.9 0.2
25/10:00pm 27.6 32.7 25.0 86 1.8 WSW 7 9 4 5 1010.1 1010.0 0.2
25/09:30pm 28.4 32.6 23.5 75 3.4 SE 7 11 4 6 1009.9 1009.8 0.2
25/09:00pm 28.4 32.1 23.3 74 3.5 SE 9 13 5 7 1009.7 1009.6 0.2
25/08:30pm 28.1 32.4 24.2 79 2.7 SE 9 11 5 6 1009.3 1009.2 0.2
25/08:00pm 27.9 32.3 24.4 81 2.4 E 9 11 5 6 1009.1 1009.0 0.2
25/07:30pm 27.9 32.4 24.6 82 2.3 ENE 9 13 5 7 1008.6 1008.5 0.2
25/07:00pm 28.0 31.4 24.6 82 2.4 ENE 15 19 8 10 1008.3 1008.2 0.2
25/06:30pm 28.4 32.5 23.9 76 3.1 E 9 13 5 7 1008.0 1007.9 0.2
25/06:00pm 29.1 32.3 23.7 72 3.7 ENE 13 19 7 10 1007.5 1007.4 0.2
25/05:30pm 28.1 30.1 23.9 78 2.9 SE 20 28 11 15 1007.2 1007.1 0.2
25/05:00pm 29.9 31.2 24.6 73 3.7 ENE 26 35 14 19 1007.0 1006.9 0.2
25/04:30pm 30.1 31.3 24.5 72 3.9 ENE 26 33 14 18 1006.6 1006.5 0.2
25/04:26pm 30.2 31.2 24.8 73 3.8 ENE 28 33 15 18 1006.7 1006.6 0.2
25/04:00pm 31.9 34.9 22.7 58 6.3 NE 11 15 6 8 1006.4 1006.3 0.2
25/03:30pm 33.5 36.2 22.1 51 7.8 SW 11 19 6 10 1006.3 1006.2 0.2
25/03:00pm 32.9 35.2 22.1 53 7.4 S 13 17 7 9 1006.6 1006.5 0.2
25/02:30pm 32.5 34.7 21.9 53 7.2 ESE 13 24 7 13 1006.9 1006.8 0.2
25/02:00pm 32.4 34.5 22.5 56 6.8 SSE 15 26 8 14 1007.2 1007.1 0.2
25/01:30pm 32.2 34.3 22.4 56 6.7 SSE 15 24 8 13 1007.2 1007.1 0.2
25/01:00pm 31.7 32.9 21.5 54 6.9 SSW 17 28 9 15 1007.7 1007.6 0.2
25/12:30pm 32.1 34.0 22.1 55 6.8 SSW 15 22 8 12 1008.2 1008.1 0.2
25/12:00pm 31.9 33.8 22.7 58 6.3 SSE 17 24 9 13 1008.6 1008.5 0.2
25/11:30am 31.4 32.2 21.3 55 6.8 SE 19 30 10 16 1009.2 1009.1 0.2
25/11:00am 31.1 31.9 21.8 57 6.3 SSE 20 30 11 16 1009.5 1009.4 0.0
25/10:30am 30.6 31.4 21.4 58 6.2 SSE 19 30 10 16 1009.8 1009.7 0.0
25/10:00am 30.3 32.3 21.5 59 5.9 SSE 13 19 7 10 1010.1 1010.0 0.0
25/09:30am 29.7 30.1 20.7 58 6.0 SSE 19 24 10 13 1010.3 1010.2 0.0
25/09:00am 29.1 30.7 21.5 63 5.1 S 15 20 8 11 1010.1 1010.0 0.4
25/08:30am 28.5 30.7 21.8 67 4.5 S 13 17 7 9 1009.9 1009.8 0.4
25/08:00am 27.3 32.2 22.4 74 3.3 CALM 0 6 0 3 1009.7 1009.6 0.4
25/07:30am 25.7 29.6 23.0 85 1.8 WNW 7 9 4 5 1009.2 1009.1 0.4
25/07:00am 24.6 29.9 23.0 91 1.1 CALM 0 6 0 3 1009.0 1008.9 0.4
25/06:30am 24.4 28.7 22.0 86 1.6 S 2 7 1 4 1008.7 1008.6 0.4
25/06:00am 24.2 28.9 21.9 87 1.5 CALM 0 0 0 0 1008.6 1008.5 0.4
25/05:30am 24.2 27.7 22.1 88 1.4 S 7 7 4 4 1008.4 1008.3 0.4
25/05:00am 24.3 29.2 22.4 89 1.3 CALM 0 0 0 0 1008.2 1008.1 0.4
25/04:30am 24.5 29.3 22.1 86 1.6 CALM 0 0 0 0 1008.1 1008.0 0.4
25/04:00am 24.4 29.4 22.5 89 1.3 CALM 0 0 0 0 1008.0 1007.9 0.4
25/03:30am 24.5 29.6 22.6 89 1.3 CALM 0 7 0 4 1008.2 1008.1 0.4
25/03:00am 24.2 27.2 22.6 91 1.1 S 11 11 6 6 1008.3 1008.2 0.4
25/02:30am 23.9 28.0 22.9 94 0.7 S 6 11 3 6 1008.5 1008.4 0.4
25/02:00am 24.1 29.5 23.2 95 0.6 CALM 0 0 0 0 1008.8 1008.7 0.4
25/01:30am 24.5 29.9 23.3 93 0.8 CALM 0 7 0 4 1009.0 1008.9 0.4
25/01:00am 24.7 30.1 23.2 91 1.0 CALM 0 0 0 0 1009.3 1009.2 0.4
25/12:30am 25.2 30.5 23.0 87 1.5 CALM 0 6 0 3 1009.5 1009.4 0.4
25/12:00am 25.2 30.3 23.4 90 1.2 SSW 2 6 1 3 1009.8 1009.7 0.4
 
Date/Time
EST
Temp
°C
App
Temp
°C
Dew
Point
°C
Rel
Hum
%
Delta-T
°C
Wind Press
QNH
hPa
Press
MSL
hPa
Rain since
9am
mm
Dir  Spd
km/h
Gust
km/h
Spd
kts
Gust
kts
24/11:30pm 25.1 30.7 23.5 91 1.1 CALM 0 6 0 3 1010.2 1010.1 0.4
24/11:00pm 25.2 29.3 23.3 89 1.3 SE 7 9 4 5 1010.2 1010.1 0.4
24/10:30pm 25.0 28.8 23.4 91 1.1 SSE 9 9 5 5 1010.1 1010.0 0.4
24/10:00pm 25.2 28.9 23.3 89 1.3 SSE 9 9 5 5 1009.9 1009.8 0.4
24/09:30pm 25.2 30.8 23.6 91 1.1 CALM 0 0 0 0 1009.9 1009.8 0.4
24/09:00pm 25.5 31.3 23.9 91 1.1 CALM 0 0 0 0 1009.8 1009.7 0.4
24/08:30pm 25.8 31.7 24.1 90 1.2 CALM 0 0 0 0 1009.6 1009.5 0.4
24/08:00pm 25.6 31.4 23.9 90 1.2 CALM 0 0 0 0 1009.4 1009.3 0.4
24/07:30pm 26.0 29.6 23.7 87 1.6 WSW 11 13 6 7 1009.1 1009.0 0.4
24/07:00pm 26.1 31.9 23.9 88 1.5 CALM 0 9 0 5 1008.6 1008.5 0.4
24/06:30pm 26.9 31.9 23.9 83 2.1 S 4 7 2 4 1008.5 1008.4 0.4
24/06:00pm 27.4 31.5 23.9 81 2.4 SSE 9 13 5 7 1008.2 1008.1 0.4
24/05:30pm 27.1 30.8 24.5 86 1.8 ESE 13 15 7 8 1007.9 1007.8 0.4
24/05:25pm 26.8 29.9 24.2 86 1.8 E 15 26 8 14 1007.9 1007.8 0.4
24/05:05pm 28.4 32.4 23.8 76 3.2 S 9 13 5 7 1007.7 1007.6 0.0
24/05:00pm 28.3 32.3 23.7 76 3.2 S 9 11 5 6 1007.5 1007.4 0.0
24/04:30pm 28.4 31.4 23.3 74 3.5 S 13 15 7 8 1007.4 1007.3 0.0
24/04:00pm 27.9 30.5 22.6 73 3.6 SSE 13 24 7 13 1007.5 1007.4 0.0
24/03:30pm 29.5 31.1 23.2 69 4.3 ESE 20 28 11 15 1007.4 1007.3 0.0
24/03:00pm 29.8 32.8 23.3 68 4.5 ESE 13 15 7 8 1007.4 1007.3 0.0
24/02:30pm 30.0 32.2 23.2 67 4.7 SSE 17 24 9 13 1007.7 1007.6 0.0
24/02:00pm 29.8 32.6 23.6 69 4.3 SE 15 22 8 12 1008.0 1007.9 0.0
24/01:30pm 29.4 32.5 22.8 67 4.5 SE 11 15 6 8 1008.5 1008.4 0.0
24/01:00pm 29.2 32.7 23.5 71 3.9 SSE 11 19 6 10 1008.8 1008.7 0.0
24/12:30pm 29.0 32.8 24.1 75 3.4 SE 11 13 6 7 1009.3 1009.2 0.0
24/12:00pm 28.5 32.8 24.2 77 3.0 SSE 9 15 5 8 1009.8 1009.7 0.0
24/11:30am 28.1 31.8 23.9 78 2.9 SSE 11 17 6 9 1010.3 1010.2 0.0
24/11:00am 27.7 32.1 24.4 82 2.3 ESE 9 11 5 6 1010.7 1010.6 0.0
24/10:30am 27.5 30.6 23.6 79 2.7 SSE 13 17 7 9 1010.9 1010.8 0.0
24/10:00am 27.3 30.9 23.8 81 2.4 SE 11 17 6 9 1011.2 1011.1 0.0
24/09:30am 26.9 30.0 24.1 85 1.9 SSE 15 17 8 9 1011.1 1011.0 0.0
24/09:00am 26.3 30.9 24.1 88 1.5 SSW 7 11 4 6 1011.1 1011.0 37.6
24/08:30am 25.5 29.8 23.6 89 1.3 S 7 9 4 5 1010.7 1010.6 37.6
24/08:00am 25.1 29.1 23.8 92 0.9 S 9 9 5 5 1010.5 1010.4 37.6
24/07:30am 24.8 30.2 23.8 94 0.7 S 2 7 1 4 1010.3 1010.2 37.6
24/07:00am 24.4 30.1 23.7 96 0.5 CALM 0 0 0 0 1010.0 1009.9 37.6
24/06:30am 24.2 29.8 23.5 96 0.5 CALM 0 0 0 0 1009.5 1009.4 37.6
24/06:00am 24.2 28.9 23.3 95 0.6 S 4 7 2 4 1009.0 1008.9 37.6
24/05:30am 24.0 29.1 23.3 96 0.5 SSW 2 6 1 3 1008.9 1008.8 37.6
24/05:00am 23.9 27.8 23.0 95 0.6 SSW 7 9 4 5 1008.6 1008.5 37.6
24/04:30am 23.9 26.6 22.9 94 0.7 SSW 13 17 7 9 1008.3 1008.2 37.6
24/04:00am 23.8 25.7 22.8 94 0.7 SSW 17 20 9 11 1008.3 1008.2 37.6
24/03:30am 23.9 28.0 23.0 95 0.6 SW 6 7 3 4 1008.6 1008.5 37.6
24/03:00am 24.1 29.5 23.2 95 0.6 CALM 0 0 0 0 1008.7 1008.6 37.6
24/02:30am 24.0 28.9 23.1 95 0.6 WSW 2 7 1 4 1009.2 1009.1 37.6
24/02:00am 23.8 26.9 22.8 94 0.7 SSW 11 13 6 7 1009.7 1009.6 37.6
24/01:30am 23.5 26.4 22.5 94 0.7 S 11 13 6 7 1009.8 1009.7 37.2
24/01:00am 23.6 26.6 22.6 94 0.7 SSE 11 13 6 7 1010.0 1009.9 37.2
24/12:30am 23.3 26.5 22.3 94 0.7 S 9 11 5 6 1010.4 1010.3 36.8
24/12:00am 23.4 26.3 22.4 94 0.7 S 11 13 6 7 1010.5 1010.4 36.0
 
Date/Time
EST
Temp
°C
App
Temp
°C
Dew
Point
°C
Rel
Hum
%
Delta-T
°C
Wind Press
QNH
hPa
Press
MSL
hPa
Rain since
9am
mm
Dir  Spd
km/h
Gust
km/h
Spd
kts
Gust
kts
23/11:30pm 23.7 26.9 23.0 96 0.5 SSE 11 13 6 7 1010.6 1010.5 34.4
23/11:00pm 24.0 26.2 23.3 96 0.5 SE 17 22 9 12 1010.9 1010.8 33.4
23/10:30pm 24.2 25.2 23.5 96 0.5 ESE 24 32 13 17 1011.5 1011.4 31.4
23/10:18pm 23.9 22.9 23.0 95 0.6 ESE 33 43 18 23 1011.7 1011.6 30.2
23/10:00pm 24.2 23.2 23.0 93 0.8 ESE 33 44 18 24 1011.6 1011.5 28.6
23/09:52pm 24.5 24.4 23.5 94 0.7 ESE 30 48 16 26 1011.5 1011.4 28.4
23/09:51pm 24.5 24.4 23.5 94 0.7 ESE 30 48 16 26 1011.4 1011.3 28.4
23/09:45pm 24.4 24.0 23.1 92 0.9 ESE 30 48 16 26 1011.5 1011.4 28.2
23/09:36pm 24.6 24.0 23.3 92 0.9 ESE 32 54 17 29 1011.6 1011.5 28.0
23/09:32pm 24.8 25.4 23.5 92 0.9 ESE 26 54 14 29 1011.6 1011.5 27.6
23/09:30pm 25.0 26.5 23.7 92 0.9 ESE 22 54 12 29 1011.6 1011.5 27.6
23/09:13pm 25.3 27.8 24.4 95 0.6 E 19 26 10 14 1011.4 1011.3 24.2
23/09:00pm 25.5 28.8 24.5 94 0.7 SE 15 20 8 11 1011.1 1011.0 21.8
23/08:36pm 25.1 28.4 24.5 96 0.4 ESE 15 19 8 10 1010.6 1010.5 21.8
23/08:30pm 25.0 29.1 24.6 98 0.3 ENE 11 15 6 8 1010.7 1010.6 21.8
23/08:21pm 24.9 28.5 24.3 96 0.4 NE 13 15 7 8 1010.6 1010.5 21.4
23/08:06pm 25.0 24.9 24.3 96 0.5 E 32 43 17 23 1010.7 1010.6 15.2
23/08:00pm 25.4 25.4 24.7 96 0.5 E 33 44 18 24 1010.7 1010.6 9.8
23/07:53pm 26.1 27.3 25.1 94 0.7 E 28 37 15 20 1010.5 1010.4 5.2
23/07:30pm 28.1 30.5 24.2 79 2.7 ESE 19 26 10 14 1009.7 1009.6 2.4
23/07:00pm 28.1 30.8 24.8 82 2.3 ESE 19 26 10 14 1009.0 1008.9 2.4
23/06:30pm 28.2 30.7 24.5 80 2.6 ESE 19 26 10 14 1008.9 1008.8 2.4
23/06:00pm 28.6 31.0 24.3 77 3.0 E 19 28 10 15 1008.7 1008.6 2.4
23/05:30pm 29.5 31.5 23.9 72 3.9 E 20 28 11 15 1008.0 1007.9 2.4
23/05:00pm 30.1 32.8 24.1 70 4.2 E 17 20 9 11 1007.6 1007.5 2.4
23/04:30pm 29.9 32.9 24.6 73 3.7 ENE 17 24 9 13 1007.3 1007.2 2.4
23/04:00pm 30.5 32.2 24.7 71 4.1 ENE 24 28 13 15 1007.4 1007.3 2.4
23/03:30pm 30.6 33.2 24.6 70 4.2 E 19 26 10 14 1007.5 1007.4 2.4
23/03:00pm 30.6 32.7 24.1 68 4.5 E 20 26 11 14 1007.4 1007.3 2.4
23/02:30pm 30.4 33.2 25.2 74 3.7 E 20 32 11 17 1007.6 1007.5 2.4
23/02:00pm 29.9 34.6 24.9 74 3.5 ESE 9 15 5 8 1008.1 1008.0 2.4
23/01:30pm 29.2 34.5 25.2 79 2.8 ENE 7 15 4 8 1008.4 1008.3 2.4
23/01:00pm 29.4 34.1 25.0 77 3.1 ESE 9 13 5 7 1008.9 1008.8 2.4
23/12:43pm 28.8 33.1 24.9 79 2.7 SE 11 15 6 8 1009.1 1009.0 2.4
23/12:30pm 28.6 32.5 24.9 80 2.6 SE 13 17 7 9 1009.1 1009.0 2.4
23/12:00pm 28.2 32.3 24.6 81 2.5 SE 11 17 6 9 1009.7 1009.6 2.4

Other Formats:

Comma delimited format used in spreadsheet applications
http://www.bom.gov.au/fwo/IDQ60801/IDQ60801.94294.axf

JavaScript Object Notation format (JSON) in row-major order
http://www.bom.gov.au/fwo/IDQ60801/IDQ60801.94294.json